createdAt,value
2019-01-20T00:02:14.693Z,94785.18
2019-01-20T00:04:45.084Z,94785.98
2019-01-20T00:07:15.429Z,94783.22
2019-01-20T00:09:45.863Z,94784.44
2019-01-20T00:12:16.541Z,94778.05
2019-01-20T00:14:46.835Z,94785.34
2019-01-20T00:17:17.715Z,94775.58
2019-01-20T00:19:48.389Z,94777.89
2019-01-20T00:22:18.729Z,94779.17
2019-01-20T00:24:49.254Z,94781.66
2019-01-20T00:27:20.157Z,94775.42
2019-01-20T00:29:50.468Z,94776.16
2019-01-20T00:32:20.867Z,94779.06
2019-01-20T00:34:51.441Z,94782.50
2019-01-20T00:37:22.045Z,94778.54
2019-01-20T00:39:52.408Z,94787.52
2019-01-20T00:42:22.927Z,94792.48
2019-01-20T00:44:53.379Z,94785.80
2019-01-20T00:47:25.366Z,94785.22
2019-01-20T00:49:55.780Z,94786.31
2019-01-20T00:52:26.090Z,94795.73
2019-01-20T00:54:56.857Z,94786.98
2019-01-20T00:57:28.364Z,94792.76
2019-01-20T00:59:58.663Z,94792.15
2019-01-20T01:02:29.512Z,94794.05
2019-01-20T01:04:59.845Z,94786.38
2019-01-20T01:07:30.419Z,94790.03
2019-01-20T01:10:00.715Z,94783.73
2019-01-20T01:12:31.348Z,94779.42
2019-01-20T01:15:02.029Z,94486.62
2019-01-20T01:17:33.520Z,94776.12
2019-01-20T01:20:04.558Z,94777.98
2019-01-20T01:22:35.175Z,94768.88
2019-01-20T01:25:06.743Z,94770.25
2019-01-20T01:27:37.132Z,94768.47
2019-01-20T01:30:20.398Z,94773.47
2019-01-20T01:32:51.195Z,94764.02
2019-01-20T01:35:21.477Z,94769.55
2019-01-20T01:37:53.025Z,94763.10
2019-01-20T01:40:23.319Z,94759.44
2019-01-20T01:42:54.135Z,94751.72
2019-01-20T01:45:24.601Z,94750.02
2019-01-20T01:47:55.021Z,94753.22
2019-01-20T01:50:25.804Z,94748.30
2019-01-20T01:52:56.377Z,94747.29
2019-01-20T01:55:26.718Z,94744.07
2019-01-20T01:57:57.681Z,94737.16
2019-01-20T02:00:28.437Z,94747.20
2019-01-20T02:02:58.927Z,94735.89
2019-01-20T02:05:29.296Z,94739.17
2019-01-20T02:08:00.006Z,94736.91
2019-01-20T02:10:30.341Z,94738.81
2019-01-20T02:13:00.809Z,94739.91
2019-01-20T02:15:32.640Z,94730.51
2019-01-20T02:18:03.009Z,94735.47
2019-01-20T02:20:33.322Z,94739.12
2019-01-20T02:23:04.386Z,94726.31
2019-01-20T02:25:35.830Z,94737.91
2019-01-20T02:28:06.193Z,94727.70
2019-01-20T02:30:36.772Z,94730.19
2019-01-20T02:33:07.467Z,94719.74
2019-01-20T02:35:37.780Z,94728.50
2019-01-20T02:38:08.478Z,94727.80
2019-01-20T02:40:39.079Z,94719.35
2019-01-20T02:43:09.482Z,94722.66
2019-01-20T02:45:40.073Z,94733.85
2019-01-20T02:48:10.584Z,94733.26
2019-01-20T02:50:42.177Z,94721.64
2019-01-20T02:53:13.042Z,94720.74
2019-01-20T02:55:44.331Z,94717.67
2019-01-20T02:58:15.159Z,94716.58
2019-01-20T03:00:45.905Z,94715.88
2019-01-20T03:03:16.226Z,94713.71
2019-01-20T03:05:46.558Z,94713.30
2019-01-20T03:08:16.994Z,94708.66
2019-01-20T03:10:47.275Z,94705.78
2019-01-20T03:13:17.639Z,94697.52
2019-01-20T03:15:48.077Z,94697.81
2019-01-20T03:18:18.708Z,94696.53
2019-01-20T03:20:49.400Z,94691.77
2019-01-20T03:23:19.774Z,94690.19
2019-01-20T03:25:50.206Z,94696.22
2019-01-20T03:28:21.943Z,94697.03
2019-01-20T03:30:52.308Z,94694.45
2019-01-20T03:33:22.726Z,94689.37
2019-01-20T03:35:53.259Z,94689.67
2019-01-20T03:38:23.530Z,94682.32
2019-01-20T03:40:53.889Z,94689.48
2019-01-20T03:43:24.658Z,94687.39
2019-01-20T03:45:55.195Z,94689.28
2019-01-20T03:48:26.061Z,94686.09
2019-01-20T03:50:56.587Z,94682.02
2019-01-20T03:53:26.954Z,94674.57
2019-01-20T03:55:57.971Z,94676.08
2019-01-20T03:58:28.455Z,94674.09
2019-01-20T04:00:58.821Z,94676.95
2019-01-20T04:03:29.436Z,94675.36
2019-01-20T04:05:59.828Z,94670.60
2019-01-20T04:08:30.126Z,94669.88
2019-01-20T04:11:00.951Z,94666.52
2019-01-20T04:13:31.641Z,94672.37
2019-01-20T04:16:01.941Z,94670.80
2019-01-20T04:18:32.746Z,94665.51
2019-01-20T04:21:03.026Z,94668.09
2019-01-20T04:23:33.608Z,94670.52
2019-01-20T04:26:04.259Z,94667.44
2019-01-20T04:28:34.576Z,94671.20
2019-01-20T04:31:05.279Z,94664.64
2019-01-20T04:33:35.933Z,94669.39
2019-01-20T04:36:06.202Z,94662.91
2019-01-20T04:38:36.979Z,94663.28
2019-01-20T04:41:07.572Z,94663.56
2019-01-20T04:43:37.946Z,94656.73
2019-01-20T04:46:08.514Z,94656.07
2019-01-20T04:48:39.101Z,94654.97
2019-01-20T04:51:09.475Z,94650.30
2019-01-20T04:53:40.787Z,94650.23
2019-01-20T04:56:11.099Z,94641.79
2019-01-20T04:58:41.889Z,94641.69
2019-01-20T05:01:12.280Z,94640.69
2019-01-20T05:03:42.585Z,94634.66
2019-01-20T05:06:12.941Z,94635.26
2019-01-20T05:08:43.812Z,94633.57
2019-01-20T05:11:14.115Z,94635.47
2019-01-20T05:13:44.559Z,94640.40
2019-01-20T05:16:15.222Z,94639.73
2019-01-20T05:18:45.711Z,94636.73
2019-01-20T05:21:17.073Z,94631.89
2019-01-20T05:23:47.711Z,94626.72
2019-01-20T05:26:18.302Z,94629.80
2019-01-20T05:28:49.067Z,94632.48
2019-01-20T05:31:19.411Z,94628.41
2019-01-20T05:33:49.715Z,94630.48
2019-01-20T05:36:21.443Z,94630.30
2019-01-20T05:38:51.730Z,94625.52
2019-01-20T05:41:22.044Z,94629.20
2019-01-20T05:43:52.776Z,94634.48
2019-01-20T05:46:23.292Z,94627.80
2019-01-20T05:48:53.735Z,94633.48
2019-01-20T05:51:24.266Z,94635.66
2019-01-20T05:53:55.015Z,94639.72
2019-01-20T05:56:25.422Z,94642.61
2019-01-20T05:58:55.750Z,94638.73
2019-01-20T06:01:27.313Z,94636.16
2019-01-20T06:03:57.982Z,94636.16
2019-01-20T06:06:28.290Z,94639.62
2019-01-20T06:08:58.958Z,94638.05
2019-01-20T06:11:29.767Z,94636.65
2019-01-20T06:14:00.463Z,94634.26
2019-01-20T06:16:30.756Z,94642.31
2019-01-20T06:19:01.562Z,94636.16
2019-01-20T06:21:32.254Z,94649.84
2019-01-20T06:24:02.606Z,94633.08
2019-01-20T06:26:33.006Z,94634.34
2019-01-20T06:29:03.774Z,94642.09
2019-01-20T06:31:34.041Z,94630.27
2019-01-20T06:34:04.419Z,94633.84
2019-01-20T06:36:36.003Z,94628.69
2019-01-20T06:39:08.702Z,94629.36
2019-01-20T06:41:39.040Z,94634.71
2019-01-20T06:44:09.885Z,94635.33
2019-01-20T06:46:40.374Z,94636.05
2019-01-20T06:49:10.925Z,94636.49
2019-01-20T06:51:41.478Z,94385.56
2019-01-20T06:54:12.101Z,94640.66
2019-01-20T06:56:42.767Z,94634.95
2019-01-20T06:59:13.160Z,94639.62
2019-01-20T07:01:43.441Z,94630.98
2019-01-20T07:04:13.890Z,94637.65
2019-01-20T07:06:44.419Z,94648.16
2019-01-20T07:09:15.901Z,94638.10
2019-01-20T07:11:46.644Z,94641.05
2019-01-20T07:14:17.370Z,94643.09
2019-01-20T07:16:47.749Z,94643.84
2019-01-20T07:19:18.636Z,94644.34
2019-01-20T07:21:49.456Z,94644.63
2019-01-20T07:24:19.785Z,94642.29
2019-01-20T07:26:50.640Z,94648.98
2019-01-20T07:29:21.149Z,94648.20
2019-01-20T07:31:51.458Z,94642.97
2019-01-20T07:34:21.970Z,94644.99
2019-01-20T07:36:52.400Z,94648.88
2019-01-20T07:39:23.235Z,94649.92
2019-01-20T07:41:53.927Z,94649.78
2019-01-20T07:44:24.281Z,94652.13
2019-01-20T07:46:54.778Z,94661.56
2019-01-20T07:49:25.558Z,94655.69
2019-01-20T07:51:56.019Z,94651.70
2019-01-20T07:54:26.437Z,94651.16
2019-01-20T07:56:57.107Z,94639.46
2019-01-20T07:59:27.450Z,94642.72
2019-01-20T08:01:57.750Z,94649.70
2019-01-20T08:04:28.147Z,94647.62
2019-01-20T08:06:58.528Z,94645.23
2019-01-20T08:09:28.947Z,94651.00
2019-01-20T08:11:59.247Z,94651.55
2019-01-20T08:14:29.627Z,94655.20
2019-01-20T08:17:00.007Z,94650.92
2019-01-20T08:19:30.422Z,94658.85
2019-01-20T08:22:00.809Z,94659.89
2019-01-20T08:24:31.544Z,94662.50
2019-01-20T08:27:01.890Z,94652.81
2019-01-20T08:29:32.416Z,94662.89
2019-01-20T08:32:03.154Z,94662.57
2019-01-20T08:34:33.608Z,94654.66
2019-01-20T08:37:04.431Z,94663.08
2019-01-20T08:39:34.942Z,94661.85
2019-01-20T08:42:05.363Z,94655.00
2019-01-20T08:44:39.593Z,94655.94
2019-01-20T08:47:32.163Z,94641.44
2019-01-20T08:50:02.788Z,94642.14
2019-01-20T08:52:33.350Z,94639.59
2019-01-20T08:55:04.353Z,94648.07
2019-01-20T08:57:34.658Z,94645.53
2019-01-20T09:00:07.655Z,94645.13
2019-01-20T09:02:38.035Z,94637.88
2019-01-20T09:05:08.833Z,94641.85
2019-01-20T09:07:39.689Z,94639.85
2019-01-20T09:10:18.026Z,94632.88
2019-01-20T09:12:48.929Z,94636.10
2019-01-20T09:15:19.424Z,94645.75
2019-01-20T09:17:50.040Z,94642.40
2019-01-20T09:20:20.873Z,94642.95
2019-01-20T09:22:51.457Z,94643.25
2019-01-20T09:25:21.986Z,94637.40
2019-01-20T09:27:54.077Z,94647.10
2019-01-20T09:30:24.879Z,94640.33
2019-01-20T09:32:57.221Z,94643.95
2019-01-20T09:35:27.830Z,94641.63
2019-01-20T09:37:58.510Z,94624.21
2019-01-20T09:40:28.797Z,94621.81
2019-01-20T09:42:59.263Z,94625.50
2019-01-20T09:45:31.083Z,94614.31
2019-01-20T09:48:01.790Z,94614.47
2019-01-20T09:50:32.650Z,94614.70
2019-01-20T09:53:02.952Z,94612.13
2019-01-20T09:55:33.630Z,94610.73
2019-01-20T09:58:04.057Z,94602.88
2019-01-20T10:00:34.528Z,94605.30
2019-01-20T10:03:04.866Z,94614.34
2019-01-20T10:05:35.485Z,94598.47
2019-01-20T10:08:06.242Z,94598.58
2019-01-20T10:10:36.545Z,94597.41
2019-01-20T10:13:07.430Z,94593.73
2019-01-20T10:15:37.885Z,94589.47
2019-01-20T10:18:08.794Z,94584.34
2019-01-20T10:20:39.214Z,94581.04
2019-01-20T10:23:09.662Z,94587.88
2019-01-20T10:25:40.653Z,94576.16
2019-01-20T10:28:12.914Z,94577.64
2019-01-20T10:30:43.200Z,94566.94
2019-01-20T10:33:13.913Z,94563.67
2019-01-20T10:35:50.237Z,94557.60
2019-01-20T10:38:20.606Z,94562.25
2019-01-20T10:40:51.382Z,94553.86
2019-01-20T10:43:22.324Z,94562.62
2019-01-20T10:45:52.637Z,94567.11
2019-01-20T10:48:23.627Z,94552.27
2019-01-20T10:50:54.411Z,94546.09
2019-01-20T10:53:24.691Z,94538.59
2019-01-20T10:55:55.327Z,94527.03
2019-01-20T10:58:25.743Z,94515.77
2019-01-20T11:00:56.024Z,94517.62
2019-01-20T11:03:26.329Z,94521.66
2019-01-20T11:05:56.875Z,94519.15
2019-01-20T11:08:27.166Z,94507.73
2019-01-20T11:10:57.467Z,94508.14
2019-01-20T11:13:28.281Z,94505.63
2019-01-20T11:15:58.849Z,94501.77
2019-01-20T11:18:29.414Z,94495.77
2019-01-20T11:21:00.059Z,94501.62
2019-01-20T11:23:30.477Z,94493.27
2019-01-20T11:26:01.173Z,94490.75
2019-01-20T11:28:31.604Z,94496.98
2019-01-20T11:31:01.877Z,94492.55
2019-01-20T11:33:32.663Z,94482.85
2019-01-20T11:36:03.126Z,94485.47
2019-01-20T11:38:33.414Z,94481.38
2019-01-20T11:41:04.172Z,94476.48
2019-01-20T11:43:34.879Z,94481.47
2019-01-20T11:46:05.447Z,94476.34
2019-01-20T11:48:36.146Z,94476.55
2019-01-20T11:51:06.831Z,94473.83
2019-01-20T11:53:37.595Z,94472.48
2019-01-20T11:56:08.060Z,94475.14
2019-01-20T11:58:38.392Z,94465.16
2019-01-20T12:01:09.674Z,94462.09
2019-01-20T12:03:40.365Z,94464.32
2019-01-20T12:06:10.791Z,94455.70
2019-01-20T12:08:41.413Z,94463.84
2019-01-20T12:11:12.171Z,94458.61
2019-01-20T12:13:42.451Z,94461.41
2019-01-20T12:16:13.226Z,94458.22
2019-01-20T12:18:44.025Z,94456.71
2019-01-20T12:21:15.468Z,94459.95
2019-01-20T12:23:46.118Z,94460.39
2019-01-20T12:26:16.448Z,94458.53
2019-01-20T12:28:46.837Z,94446.95
2019-01-20T12:31:17.548Z,94451.08
2019-01-20T12:33:47.845Z,94450.72
2019-01-20T12:36:18.444Z,94447.32
2019-01-20T12:38:49.081Z,94454.30
2019-01-20T12:41:19.686Z,94459.50
2019-01-20T12:43:49.990Z,94457.00
2019-01-20T12:46:20.622Z,94459.03
2019-01-20T12:48:50.926Z,94462.77
2019-01-20T12:51:28.356Z,94467.30
2019-01-20T12:53:53.658Z,94460.51
2019-01-20T12:56:24.051Z,94464.53
2019-01-20T12:58:54.433Z,94470.42
2019-01-20T13:01:24.802Z,94462.86
2019-01-20T13:03:55.096Z,94464.16
2019-01-20T13:06:25.880Z,94459.72
2019-01-20T13:08:56.154Z,94461.23
2019-01-20T13:11:26.521Z,94458.73
2019-01-20T13:13:57.124Z,94454.66
2019-01-20T13:16:27.829Z,94457.14
2019-01-20T13:18:58.173Z,94459.52
2019-01-20T13:21:28.776Z,94460.10
2019-01-20T13:23:59.125Z,94457.79
2019-01-20T13:26:29.511Z,94454.00
2019-01-20T13:28:59.797Z,94453.70
2019-01-20T13:31:30.203Z,94452.52
2019-01-20T13:34:00.773Z,94444.37
2019-01-20T13:36:31.334Z,94451.15
2019-01-20T13:39:01.694Z,94446.23
2019-01-20T13:41:34.533Z,94443.73
2019-01-20T13:44:08.850Z,94440.70
2019-01-20T13:46:39.355Z,94439.12
2019-01-20T13:49:10.079Z,94438.38
2019-01-20T13:51:40.994Z,94446.64
2019-01-20T13:54:11.304Z,94444.50
2019-01-20T13:56:41.688Z,94447.34
2019-01-20T13:59:11.965Z,94435.84
2019-01-20T14:01:42.911Z,94439.14
2019-01-20T14:04:13.647Z,94440.28
2019-01-20T14:06:43.976Z,94434.00
2019-01-20T14:09:14.515Z,94432.28
2019-01-20T14:11:45.303Z,94438.84
2019-01-20T14:14:15.710Z,94446.48
2019-01-20T14:16:46.289Z,94443.94
2019-01-20T14:19:21.700Z,94442.72
2019-01-20T14:21:49.258Z,94453.55
2019-01-20T14:24:19.550Z,94450.95
2019-01-20T14:26:50.377Z,94457.83
2019-01-20T14:29:20.660Z,94464.64
2019-01-20T14:31:51.520Z,94460.55
2019-01-20T14:34:21.817Z,94465.89
2019-01-20T14:36:52.273Z,94463.15
2019-01-20T14:39:22.923Z,94471.05
2019-01-20T14:41:53.273Z,94477.95
2019-01-20T14:44:23.606Z,94471.19
2019-01-20T14:46:54.396Z,94469.78
2019-01-20T14:49:24.727Z,94472.34
2019-01-20T14:51:55.438Z,94466.73
2019-01-20T14:54:26.120Z,94462.34
2019-01-20T14:56:56.698Z,94465.50
2019-01-20T14:59:27.023Z,94468.96
2019-01-20T15:01:57.752Z,94479.62
2019-01-20T15:04:28.537Z,94465.06
2019-01-20T15:06:58.954Z,94471.55
2019-01-20T15:09:29.582Z,94469.88
2019-01-20T15:12:00.414Z,94465.66
2019-01-20T15:14:30.848Z,94469.75
2019-01-20T15:17:01.521Z,94463.32
2019-01-20T15:19:32.153Z,94473.38
2019-01-20T15:22:02.830Z,94467.62
2019-01-20T15:24:33.154Z,94467.25
2019-01-20T15:27:03.968Z,94467.42
2019-01-20T15:29:34.299Z,94459.35
2019-01-20T15:32:04.857Z,94462.61
2019-01-20T15:34:35.485Z,94460.89
2019-01-20T15:37:06.131Z,94453.80
2019-01-20T15:39:36.870Z,94464.91
2019-01-20T15:42:07.476Z,94451.08
2019-01-20T15:44:37.763Z,94472.84
2019-01-20T15:47:08.486Z,94480.27
2019-01-20T15:49:38.780Z,94478.87
2019-01-20T15:52:09.204Z,94483.51
2019-01-20T15:54:39.835Z,94479.97
2019-01-20T15:57:10.195Z,94479.13
2019-01-20T15:59:40.481Z,94493.36
2019-01-20T16:02:11.240Z,94489.73
2019-01-20T16:04:41.960Z,94488.24
2019-01-20T16:07:12.545Z,94502.39
2019-01-20T16:09:42.834Z,94496.11
2019-01-20T16:12:13.235Z,94492.30
2019-01-20T16:14:43.874Z,94492.80
2019-01-20T16:17:14.500Z,94488.69
2019-01-20T16:19:44.797Z,94484.25
2019-01-20T16:22:15.508Z,94487.34
2019-01-20T16:24:45.978Z,94481.42
2019-01-20T16:27:16.639Z,94481.53
2019-01-20T16:29:47.270Z,94468.94
2019-01-20T16:32:18.077Z,94466.16
2019-01-20T16:34:48.370Z,94454.27
2019-01-20T16:37:18.880Z,94443.45
2019-01-20T16:39:49.203Z,94450.39
2019-01-20T16:42:19.855Z,94456.86
2019-01-20T16:44:50.640Z,94475.60
2019-01-20T16:47:21.143Z,94490.06
2019-01-20T16:49:51.833Z,94489.66
2019-01-20T16:52:22.897Z,94504.16
2019-01-20T16:54:53.200Z,94505.64
2019-01-20T16:57:23.582Z,94501.88
2019-01-20T16:59:54.346Z,94513.67
2019-01-20T17:02:24.769Z,94513.77
2019-01-20T17:04:55.174Z,94526.95
2019-01-20T17:07:26.101Z,94532.41
2019-01-20T17:09:56.413Z,94536.73
2019-01-20T17:12:26.720Z,94537.55
2019-01-20T17:14:57.455Z,94534.05
2019-01-20T17:17:28.082Z,94539.87
2019-01-20T17:19:58.349Z,94535.20
2019-01-20T17:22:29.052Z,94533.02
2019-01-20T17:24:59.428Z,94528.96
2019-01-20T17:27:29.701Z,94535.69
2019-01-20T17:30:00.472Z,94542.83
2019-01-20T17:32:31.335Z,94538.36
2019-01-20T17:35:01.625Z,94535.44
2019-01-20T17:37:32.119Z,94531.69
2019-01-20T17:40:02.824Z,94535.85
2019-01-20T17:42:33.142Z,94535.33
2019-01-20T17:45:03.966Z,94537.80
2019-01-20T17:47:34.311Z,94538.00
2019-01-20T17:50:06.672Z,94533.92
2019-01-20T17:52:37.188Z,94532.64
2019-01-20T17:55:07.873Z,94534.20
2019-01-20T17:57:38.527Z,94530.95
2019-01-20T18:00:12.279Z,94536.03
2019-01-20T18:02:42.901Z,94538.72
2019-01-20T18:05:14.822Z,94543.23
2019-01-20T18:07:45.699Z,94546.21
2019-01-20T18:10:16.197Z,94540.67
2019-01-20T18:12:46.737Z,94543.45
2019-01-20T18:15:18.227Z,94541.84
2019-01-20T18:17:48.781Z,94544.53
2019-01-20T18:20:21.867Z,94553.27
2019-01-20T18:22:52.229Z,94555.24
2019-01-20T18:25:22.822Z,94563.89
2019-01-20T18:27:53.648Z,94565.29
2019-01-20T18:30:25.640Z,94565.56
2019-01-20T18:32:55.946Z,94578.36
2019-01-20T18:35:27.243Z,94575.90
2019-01-20T18:37:58.070Z,94573.09
2019-01-20T18:40:28.630Z,94580.22
2019-01-20T18:42:59.375Z,94572.09
2019-01-20T18:45:31.687Z,94571.52
2019-01-20T18:48:02.208Z,94572.00
2019-01-20T18:50:34.477Z,94574.00
2019-01-20T18:53:05.337Z,94578.98
2019-01-20T18:55:36.842Z,94582.05
2019-01-20T18:58:07.673Z,94577.45
2019-01-20T19:00:44.146Z,94574.08
2019-01-20T19:03:14.989Z,94575.70
2019-01-20T19:05:45.853Z,94583.30
2019-01-20T19:08:16.174Z,94587.84
2019-01-20T19:10:46.835Z,94582.18
2019-01-20T19:13:17.555Z,94585.56
2019-01-20T19:15:47.924Z,94591.41
2019-01-20T19:18:19.108Z,94591.82
2019-01-20T19:20:49.800Z,94598.17
2019-01-20T19:23:20.103Z,94600.06
2019-01-20T19:25:50.448Z,94602.03
2019-01-20T19:28:21.220Z,94601.32
2019-01-20T19:30:51.580Z,94599.16
2019-01-20T19:33:21.936Z,94600.19
2019-01-20T19:35:52.905Z,94600.44
2019-01-20T19:38:23.393Z,94601.10
2019-01-20T19:40:53.873Z,94602.91
2019-01-20T19:43:24.391Z,94608.56
2019-01-20T19:45:54.813Z,94608.99
2019-01-20T19:48:25.106Z,94612.05
2019-01-20T19:50:55.532Z,94609.48
2019-01-20T19:53:25.825Z,94614.20
2019-01-20T19:55:56.728Z,94617.16
2019-01-20T19:58:27.225Z,94615.88
2019-01-20T20:00:57.776Z,94614.70
2019-01-20T20:03:28.728Z,94620.56
2019-01-20T20:05:59.523Z,94611.63
2019-01-20T20:08:29.815Z,94618.96
2019-01-20T20:11:00.506Z,94616.09
2019-01-20T20:13:31.173Z,94610.22
2019-01-20T20:16:01.779Z,94613.13
2019-01-20T20:18:32.245Z,94611.31
2019-01-20T20:21:02.988Z,94612.34
2019-01-20T20:23:33.302Z,94611.63
2019-01-20T20:26:03.831Z,94607.27
2019-01-20T20:28:34.229Z,94614.18
2019-01-20T20:31:05.402Z,94609.92
2019-01-20T20:33:35.928Z,94610.64
2019-01-20T20:36:06.319Z,94610.95
2019-01-20T20:38:38.340Z,94617.89
2019-01-20T20:41:09.186Z,94618.28
2019-01-20T20:43:39.511Z,94617.89
2019-01-20T20:46:09.970Z,94623.28
2019-01-20T20:48:40.354Z,94620.80
2019-01-20T20:51:10.929Z,94626.97
2019-01-20T20:53:41.246Z,94625.41
2019-01-20T20:56:12.014Z,94622.42
2019-01-20T20:58:42.449Z,94627.77
2019-01-20T21:01:13.259Z,94628.30
2019-01-20T21:03:43.905Z,94630.67
2019-01-20T21:06:14.394Z,94631.80
2019-01-20T21:08:48.466Z,94628.01
2019-01-20T21:11:17.279Z,94635.26
2019-01-20T21:13:47.541Z,94647.16
2019-01-20T21:16:18.155Z,94643.80
2019-01-20T21:18:48.682Z,94645.98
2019-01-20T21:21:18.998Z,94641.23
2019-01-20T21:23:49.673Z,94645.49
2019-01-20T21:26:20.368Z,94647.67
2019-01-20T21:28:50.752Z,94646.98
2019-01-20T21:31:21.340Z,94646.47
2019-01-20T21:33:51.634Z,94650.55
2019-01-20T21:36:22.481Z,94657.00
2019-01-20T21:38:52.911Z,94654.40
2019-01-20T21:41:23.255Z,94648.32
2019-01-20T21:43:53.926Z,94657.37
2019-01-20T21:46:24.506Z,94650.21
2019-01-20T21:48:54.793Z,94649.30
2019-01-20T21:51:25.568Z,94654.12
2019-01-20T21:53:56.049Z,94659.98
2019-01-20T21:56:26.486Z,94661.07
2019-01-20T21:58:56.906Z,94666.71
2019-01-20T22:01:27.500Z,94665.22
2019-01-20T22:03:57.963Z,94662.55
2019-01-20T22:06:28.640Z,94665.12
2019-01-20T22:08:59.092Z,94667.36
2019-01-20T22:11:29.826Z,94675.22
2019-01-20T22:14:00.208Z,94669.52
2019-01-20T22:16:30.552Z,94678.91
2019-01-20T22:19:01.135Z,94681.90
2019-01-20T22:21:32.055Z,94676.92
2019-01-20T22:24:02.372Z,94678.70
2019-01-20T22:26:32.719Z,94679.03
2019-01-20T22:29:03.374Z,94678.54
2019-01-20T22:31:36.068Z,94685.19
2019-01-20T22:34:06.777Z,94682.08
2019-01-20T22:36:37.463Z,94693.70
2019-01-20T22:39:09.074Z,94681.23
2019-01-20T22:41:39.544Z,94679.41
2019-01-20T22:44:09.832Z,94671.65
2019-01-20T22:46:40.180Z,94667.44
2019-01-20T22:49:10.869Z,94673.68
2019-01-20T22:51:41.269Z,94670.62
2019-01-20T22:54:11.811Z,94663.89
2019-01-20T22:56:42.489Z,94667.90
2019-01-20T22:59:13.003Z,94670.65
2019-01-20T23:01:43.298Z,94661.62
2019-01-20T23:04:13.953Z,94663.31
2019-01-20T23:06:44.354Z,94657.89
2019-01-20T23:09:15.106Z,94657.53
2019-01-20T23:11:45.405Z,94662.19
2019-01-20T23:14:15.699Z,94660.28
2019-01-20T23:16:46.096Z,94661.09
2019-01-20T23:19:16.702Z,94660.78
2019-01-20T23:21:47.031Z,94661.48
2019-01-20T23:24:17.828Z,94658.69
2019-01-20T23:26:48.617Z,94664.45
2019-01-20T23:29:18.962Z,94655.05
2019-01-20T23:31:49.705Z,94652.95
2019-01-20T23:34:20.454Z,94649.91
2019-01-20T23:36:50.778Z,94650.31
2019-01-20T23:39:21.217Z,94650.80
2019-01-20T23:41:52.026Z,94650.11
2019-01-20T23:44:22.365Z,94651.56
2019-01-20T23:46:52.668Z,94653.96
2019-01-20T23:49:23.354Z,94653.20
2019-01-20T23:51:54.002Z,94658.46
2019-01-20T23:54:24.347Z,94650.75
2019-01-20T23:56:54.991Z,94650.56
2019-01-20T23:59:25.658Z,94652.54
